createdAt,value
2019-05-03T00:00:34.947Z,63.00
2019-05-03T00:03:07.534Z,63.10
2019-05-03T00:05:41.803Z,63.68
2019-05-03T00:08:12.649Z,62.75
2019-05-03T00:10:42.690Z,62.52
2019-05-03T00:13:12.712Z,62.92
2019-05-03T00:15:52.078Z,62.93
2019-05-03T00:18:22.158Z,63.15
2019-05-03T00:20:52.685Z,62.90
2019-05-03T00:23:22.961Z,62.86
2019-05-03T00:25:52.797Z,63.00
2019-05-03T00:28:22.466Z,62.71
2019-05-03T00:30:52.139Z,62.52
2019-05-03T00:33:23.444Z,62.70
2019-05-03T00:36:12.725Z,63.10
2019-05-03T00:38:42.446Z,63.10
2019-05-03T00:41:13.551Z,63.18
2019-05-03T00:43:43.353Z,63.13
2019-05-03T00:46:13.193Z,63.27
2019-05-03T00:48:43.092Z,62.82
2019-05-03T00:51:13.123Z,63.07
2019-05-03T00:53:44.275Z,63.31
2019-05-03T00:56:13.893Z,63.16
2019-05-03T00:58:52.804Z,63.63
2019-05-03T01:01:22.583Z,63.47
2019-05-03T01:03:52.820Z,64.18
2019-05-03T01:06:23.012Z,63.47
2019-05-03T01:08:52.745Z,63.04
2019-05-03T01:11:22.606Z,63.02
2019-05-03T01:13:53.223Z,63.11
2019-05-03T01:16:24.495Z,63.45
2019-05-03T01:18:54.122Z,63.96
2019-05-03T01:21:23.767Z,63.35
2019-05-03T01:23:53.422Z,63.25
2019-05-03T01:26:23.244Z,63.21
2019-05-03T01:28:52.966Z,63.66
2019-05-03T01:31:23.008Z,63.61
2019-05-03T01:33:53.231Z,63.73
2019-05-03T01:36:23.816Z,64.41
2019-05-03T01:38:53.446Z,64.74
2019-05-03T01:41:23.454Z,64.48
2019-05-03T01:43:53.209Z,63.92
2019-05-03T01:46:23.139Z,64.09
2019-05-03T01:48:54.545Z,64.76
2019-05-03T01:51:26.032Z,65.51
2019-05-03T01:53:55.705Z,65.82
2019-05-03T01:56:26.142Z,65.33
2019-05-03T01:58:55.822Z,65.63
2019-05-03T02:01:39.091Z,65.57
2019-05-03T02:04:19.208Z,65.14
2019-05-03T02:06:48.951Z,65.57
2019-05-03T02:09:18.633Z,65.91
2019-05-03T02:11:48.946Z,65.64
2019-05-03T02:14:18.497Z,65.97
2019-05-03T02:16:48.115Z,66.31
2019-05-03T02:19:17.909Z,66.36
2019-05-03T02:21:47.559Z,66.61
2019-05-03T02:24:17.104Z,66.74
2019-05-03T02:26:46.777Z,67.26
2019-05-03T02:29:16.509Z,67.16
2019-05-03T02:31:46.069Z,67.06
2019-05-03T02:34:16.484Z,67.21
2019-05-03T02:36:46.284Z,67.45
2019-05-03T02:39:17.459Z,68.50
2019-05-03T02:41:51.429Z,68.52
2019-05-03T02:44:21.291Z,68.54
2019-05-03T02:46:56.287Z,68.66
2019-05-03T02:49:30.653Z,69.32
2019-05-03T02:52:02.263Z,69.66
2019-05-03T02:54:31.843Z,68.95
2019-05-03T02:57:01.541Z,68.84
2019-05-03T02:59:31.253Z,69.03
2019-05-03T03:02:01.230Z,69.47
2019-05-03T03:04:31.083Z,69.42
2019-05-03T03:07:01.625Z,69.32
2019-05-03T03:09:31.492Z,69.78
2019-05-03T03:12:02.185Z,70.08
2019-05-03T03:14:36.254Z,69.99
2019-05-03T03:17:07.715Z,70.22
2019-05-03T03:19:38.604Z,69.82
2019-05-03T03:22:11.546Z,69.78
2019-05-03T03:24:45.812Z,69.94
2019-05-03T03:27:25.528Z,70.87
2019-05-03T03:29:58.904Z,70.14
2019-05-03T03:32:38.375Z,69.07
2019-05-03T03:35:20.828Z,69.48
2019-05-03T03:37:48.807Z,68.33
2019-05-03T03:40:18.973Z,69.61
2019-05-03T03:42:51.528Z,67.22
2019-05-03T03:45:21.226Z,67.99
2019-05-03T03:47:56.203Z,66.59
2019-05-03T03:50:28.943Z,67.38
2019-05-03T03:53:01.058Z,67.42
2019-05-03T03:55:32.861Z,67.41
2019-05-03T03:58:06.197Z,66.32
2019-05-03T04:00:36.273Z,66.07
2019-05-03T04:03:06.149Z,66.34
2019-05-03T04:05:37.512Z,65.82
2019-05-03T04:08:07.243Z,66.04
2019-05-03T04:10:37.119Z,66.10
2019-05-03T04:13:09.486Z,66.67
2019-05-03T04:15:45.268Z,66.44
2019-05-03T04:18:22.363Z,65.98
2019-05-03T04:20:52.142Z,65.97
2019-05-03T04:23:21.773Z,66.01
2019-05-03T04:25:52.115Z,66.46
2019-05-03T04:28:21.985Z,66.33
2019-05-03T04:30:51.527Z,66.90
2019-05-03T04:33:21.222Z,66.65
2019-05-03T04:35:50.783Z,66.10
2019-05-03T04:38:20.447Z,65.63
2019-05-03T04:40:50.154Z,64.88
2019-05-03T04:43:19.839Z,65.80
2019-05-03T04:46:06.665Z,66.42
2019-05-03T04:48:35.746Z,66.25
2019-05-03T04:51:06.561Z,65.88
2019-05-03T04:53:37.800Z,64.98
2019-05-03T04:56:07.412Z,64.76
2019-05-03T04:58:37.030Z,64.61
2019-05-03T05:01:07.670Z,64.98
2019-05-03T05:03:37.242Z,64.85
2019-05-03T05:06:07.012Z,64.86
2019-05-03T05:08:36.630Z,64.74
2019-05-03T05:11:10.080Z,65.04
2019-05-03T05:13:37.678Z,64.15
2019-05-03T05:16:07.472Z,63.98
2019-05-03T05:18:38.831Z,63.67
2019-05-03T05:21:15.949Z,63.43
2019-05-03T05:23:59.023Z,63.06
2019-05-03T05:26:30.540Z,64.00
2019-05-03T05:29:01.913Z,61.91
2019-05-03T05:31:31.619Z,61.70
2019-05-03T05:34:01.340Z,61.50
2019-05-03T05:36:34.745Z,60.99
2019-05-03T05:39:06.905Z,60.55
2019-05-03T05:41:36.559Z,60.71
2019-05-03T05:44:06.233Z,60.71
2019-05-03T05:46:39.617Z,61.66
2019-05-03T05:49:10.864Z,60.04
2019-05-03T05:51:40.915Z,59.87
2019-05-03T05:54:11.794Z,60.18
2019-05-03T05:56:44.493Z,59.66
2019-05-03T05:59:19.007Z,59.17
2019-05-03T06:01:50.288Z,58.91
2019-05-03T06:04:19.966Z,59.77
2019-05-03T06:06:51.321Z,59.07
2019-05-03T06:09:31.070Z,57.86
2019-05-03T06:12:04.439Z,57.79
2019-05-03T06:14:35.942Z,57.21
2019-05-03T06:17:24.527Z,57.35
2019-05-03T06:19:56.111Z,56.80
2019-05-03T06:22:34.560Z,57.23
2019-05-03T06:25:08.105Z,55.77
2019-05-03T06:27:40.769Z,56.72
2019-05-03T06:30:16.217Z,55.36
2019-05-03T06:32:45.784Z,56.39
2019-05-03T06:35:15.491Z,55.03
2019-05-03T06:37:46.387Z,55.57
2019-05-03T06:40:16.176Z,55.86
2019-05-03T06:42:54.529Z,55.20
2019-05-03T06:45:18.815Z,55.30
2019-05-03T06:47:50.124Z,55.15
2019-05-03T06:50:25.216Z,55.28
2019-05-03T06:52:51.185Z,54.94
2019-05-03T06:55:20.821Z,54.53
2019-05-03T06:57:51.690Z,52.42
2019-05-03T07:00:29.481Z,51.66
2019-05-03T07:03:00.687Z,51.41
2019-05-03T07:05:32.758Z,50.98
2019-05-03T07:08:19.683Z,48.15
2019-05-03T07:10:51.112Z,49.34
2019-05-03T07:13:20.775Z,48.33
2019-05-03T07:15:50.837Z,47.79
2019-05-03T07:18:20.356Z,47.62
2019-05-03T07:20:54.366Z,46.16
2019-05-03T07:23:24.474Z,46.16
2019-05-03T07:25:55.159Z,46.99
2019-05-03T07:28:25.587Z,47.21
2019-05-03T07:30:56.474Z,46.26
2019-05-03T07:33:30.193Z,45.10
2019-05-03T07:35:59.996Z,45.66
2019-05-03T07:38:29.550Z,46.34
2019-05-03T07:40:59.200Z,45.70
2019-05-03T07:43:28.745Z,44.64
2019-05-03T07:46:01.259Z,44.40
2019-05-03T07:48:31.297Z,43.82
2019-05-03T07:51:00.807Z,43.89
2019-05-03T07:53:30.406Z,42.90
2019-05-03T07:56:01.571Z,42.72
2019-05-03T07:58:38.723Z,42.95
2019-05-03T08:01:18.788Z,42.15
2019-05-03T08:03:48.442Z,43.48
2019-05-03T08:06:18.429Z,41.83
2019-05-03T08:08:48.025Z,40.85
2019-05-03T08:11:17.703Z,40.39
2019-05-03T08:13:47.337Z,39.62
2019-05-03T08:16:16.921Z,39.65
2019-05-03T08:18:46.534Z,39.73
2019-05-03T08:21:16.134Z,38.62
2019-05-03T08:23:45.824Z,39.92
2019-05-03T08:26:15.749Z,40.24
2019-05-03T08:28:45.390Z,40.43
2019-05-03T08:31:32.723Z,40.03
2019-05-03T08:34:04.804Z,38.59
2019-05-03T08:36:36.481Z,38.33
2019-05-03T08:39:07.385Z,37.64
2019-05-03T08:41:38.621Z,37.58
2019-05-03T08:44:08.317Z,37.30
2019-05-03T08:46:38.045Z,37.21
2019-05-03T08:49:07.611Z,37.26
2019-05-03T08:51:37.210Z,38.16
2019-05-03T08:54:06.755Z,38.57
2019-05-03T08:56:36.276Z,39.74
2019-05-03T08:59:05.787Z,39.80
2019-05-03T09:01:37.828Z,41.34
2019-05-03T09:04:06.732Z,45.42
2019-05-03T09:06:36.315Z,47.49
2019-05-03T09:09:09.426Z,47.94
2019-05-03T09:11:38.952Z,49.12
2019-05-03T09:14:12.647Z,50.25
2019-05-03T09:16:42.224Z,49.26
2019-05-03T09:19:11.771Z,48.59
2019-05-03T09:21:41.358Z,48.26
2019-05-03T09:24:11.600Z,46.41
2019-05-03T09:26:41.196Z,45.47
2019-05-03T09:29:10.720Z,44.15
2019-05-03T09:31:40.422Z,42.29
2019-05-03T09:34:11.176Z,41.41
2019-05-03T09:36:40.803Z,40.12
2019-05-03T09:39:10.601Z,39.09
2019-05-03T09:41:40.266Z,37.86
2019-05-03T09:44:09.859Z,36.73
2019-05-03T09:46:39.674Z,37.19
2019-05-03T09:49:13.356Z,36.96
2019-05-03T09:51:40.623Z,36.74
2019-05-03T09:54:11.982Z,37.84
2019-05-03T09:57:00.232Z,40.33
2019-05-03T09:59:30.941Z,44.63
2019-05-03T10:02:04.624Z,48.31
2019-05-03T10:04:36.386Z,48.95
2019-05-03T10:07:05.422Z,49.14
2019-05-03T10:09:35.462Z,49.20
2019-05-03T10:12:06.843Z,49.68
2019-05-03T10:14:36.458Z,50.14
2019-05-03T10:17:15.932Z,49.40
2019-05-03T10:19:45.767Z,51.89
2019-05-03T10:22:15.755Z,53.39
2019-05-03T10:24:45.609Z,54.05
2019-05-03T10:27:15.773Z,54.96
2019-05-03T10:29:45.271Z,54.72
2019-05-03T10:32:26.949Z,54.44
2019-05-03T10:34:58.095Z,53.49
2019-05-03T10:37:31.729Z,50.19
2019-05-03T10:40:07.791Z,47.35
2019-05-03T10:42:35.843Z,47.10
2019-05-03T10:45:07.046Z,44.83
2019-05-03T10:47:36.841Z,44.46
2019-05-03T10:50:08.458Z,42.99
2019-05-03T10:52:44.201Z,41.37
2019-05-03T10:55:15.736Z,40.15
2019-05-03T10:57:46.597Z,40.79
2019-05-03T11:00:42.482Z,39.97
2019-05-03T11:02:57.575Z,39.85
2019-05-03T11:05:27.372Z,38.98
2019-05-03T11:07:56.968Z,38.00
2019-05-03T11:10:26.487Z,37.02
2019-05-03T11:12:56.428Z,35.77
2019-05-03T11:15:26.216Z,36.57
2019-05-03T11:17:55.746Z,38.91
2019-05-03T11:20:37.468Z,40.45
2019-05-03T11:23:09.283Z,42.71
2019-05-03T11:25:38.915Z,42.84
2019-05-03T11:28:10.225Z,41.46
2019-05-03T11:30:52.276Z,40.41
2019-05-03T11:33:27.526Z,39.65
2019-05-03T11:36:07.307Z,38.86
2019-05-03T11:38:39.163Z,37.78
2019-05-03T11:41:08.807Z,36.00
2019-05-03T11:43:38.662Z,35.96
2019-05-03T11:46:08.220Z,35.55
2019-05-03T11:48:38.662Z,35.58
2019-05-03T11:51:08.386Z,35.28
2019-05-03T11:53:37.932Z,33.79
2019-05-03T11:56:07.553Z,32.98
2019-05-03T11:58:37.044Z,32.75
2019-05-03T12:01:15.913Z,32.85
2019-05-03T12:03:41.490Z,31.22
2019-05-03T12:06:11.161Z,31.52
2019-05-03T12:08:40.940Z,31.55
2019-05-03T12:11:10.521Z,32.64
2019-05-03T12:13:41.211Z,33.31
2019-05-03T12:16:15.851Z,34.56
2019-05-03T12:18:52.238Z,34.75
2019-05-03T12:21:17.210Z,36.36
2019-05-03T12:23:45.953Z,36.84
2019-05-03T12:26:17.344Z,36.34
2019-05-03T12:28:48.861Z,37.33
2019-05-03T12:31:33.518Z,35.99
2019-05-03T12:33:51.764Z,34.43
2019-05-03T12:36:21.335Z,32.07
2019-05-03T12:38:50.906Z,31.75
2019-05-03T12:41:20.469Z,32.07
2019-05-03T12:43:50.353Z,31.86
2019-05-03T12:46:21.224Z,32.20
2019-05-03T12:48:51.403Z,34.14
2019-05-03T12:51:21.022Z,34.74
2019-05-03T12:53:50.692Z,35.50
2019-05-03T12:56:23.399Z,36.33
2019-05-03T12:59:05.938Z,35.97
2019-05-03T13:01:49.020Z,35.48
2019-05-03T13:04:35.602Z,35.17
2019-05-03T13:07:09.741Z,34.24
2019-05-03T13:09:39.263Z,34.57
2019-05-03T13:12:10.956Z,34.43
2019-05-03T13:14:40.531Z,33.33
2019-05-03T13:17:11.376Z,33.51
2019-05-03T13:19:45.052Z,33.78
2019-05-03T13:22:14.575Z,33.26
2019-05-03T13:24:45.202Z,33.54
2019-05-03T13:27:15.259Z,34.91
2019-05-03T13:29:45.320Z,34.36
2019-05-03T13:32:15.163Z,33.10
2019-05-03T13:34:44.868Z,31.77
2019-05-03T13:37:35.788Z,30.42
2019-05-03T13:40:07.992Z,31.48
2019-05-03T13:42:37.958Z,31.28
2019-05-03T13:45:08.624Z,31.85
2019-05-03T13:47:38.159Z,32.58
2019-05-03T13:50:08.360Z,34.84
2019-05-03T13:52:37.879Z,35.88
2019-05-03T13:55:09.123Z,36.41
2019-05-03T13:57:38.747Z,37.09
2019-05-03T14:00:08.495Z,36.36
2019-05-03T14:02:38.123Z,36.28
2019-05-03T14:05:08.528Z,36.75
2019-05-03T14:07:38.178Z,37.14
2019-05-03T14:10:08.375Z,36.36
2019-05-03T14:12:37.881Z,35.27
2019-05-03T14:15:08.809Z,35.68
2019-05-03T14:17:38.531Z,35.65
2019-05-03T14:20:11.401Z,35.41
2019-05-03T14:22:42.548Z,35.83
2019-05-03T14:25:12.178Z,36.11
2019-05-03T14:27:41.726Z,35.68
2019-05-03T14:30:14.522Z,35.88
2019-05-03T14:32:45.419Z,35.88
2019-05-03T14:35:16.305Z,35.84
2019-05-03T14:37:46.107Z,36.26
2019-05-03T14:40:16.777Z,35.95
2019-05-03T14:42:46.339Z,36.30
2019-05-03T14:45:16.009Z,36.36
2019-05-03T14:47:48.920Z,36.33
2019-05-03T14:50:18.733Z,36.43
2019-05-03T14:52:48.332Z,36.19
2019-05-03T14:55:34.700Z,36.40
2019-05-03T14:58:04.602Z,35.96
2019-05-03T15:00:54.546Z,36.59
2019-05-03T15:03:29.163Z,36.99
2019-05-03T15:06:00.654Z,36.87
2019-05-03T15:08:30.150Z,36.91
2019-05-03T15:10:59.698Z,37.55
2019-05-03T15:13:29.343Z,37.59
2019-05-03T15:15:59.023Z,37.69
2019-05-03T15:18:29.725Z,37.60
2019-05-03T15:20:59.268Z,37.46
2019-05-03T15:23:28.891Z,37.10
2019-05-03T15:25:58.464Z,36.32
2019-05-03T15:28:28.104Z,35.51
2019-05-03T15:30:57.772Z,35.54
2019-05-03T15:33:27.343Z,35.38
2019-05-03T15:35:56.955Z,35.96
2019-05-03T15:38:26.488Z,35.34
2019-05-03T15:40:56.002Z,34.81
2019-05-03T15:43:38.949Z,34.96
2019-05-03T15:46:10.101Z,35.52
2019-05-03T15:48:41.315Z,35.67
2019-05-03T15:51:11.011Z,35.53
2019-05-03T15:53:40.601Z,35.93
2019-05-03T15:56:10.268Z,36.94
2019-05-03T15:58:40.074Z,36.76
2019-05-03T16:01:09.943Z,36.64
2019-05-03T16:03:39.997Z,37.37
2019-05-03T16:06:11.469Z,38.05
2019-05-03T16:08:41.094Z,38.78
2019-05-03T16:11:10.637Z,38.80
2019-05-03T16:13:40.609Z,38.31
2019-05-03T16:16:11.873Z,38.05
2019-05-03T16:18:41.574Z,37.78
2019-05-03T16:21:14.687Z,37.41
2019-05-03T16:23:46.619Z,37.63
2019-05-03T16:26:16.013Z,38.25
2019-05-03T16:29:05.277Z,38.16
2019-05-03T16:31:35.177Z,38.44
2019-05-03T16:34:05.001Z,38.13
2019-05-03T16:36:36.877Z,37.57
2019-05-03T16:39:08.337Z,37.89
2019-05-03T16:41:38.471Z,37.82
2019-05-03T16:44:07.999Z,37.94
2019-05-03T16:46:37.670Z,38.62
2019-05-03T16:49:07.347Z,38.80
2019-05-03T16:51:37.136Z,39.54
2019-05-03T16:54:06.992Z,40.69
2019-05-03T16:56:36.690Z,41.74
2019-05-03T16:59:17.507Z,42.20
2019-05-03T17:01:47.474Z,42.75
2019-05-03T17:04:30.163Z,43.04
2019-05-03T17:07:12.039Z,42.95
2019-05-03T17:09:43.704Z,43.58
2019-05-03T17:12:25.530Z,42.24
2019-05-03T17:14:57.133Z,42.75
2019-05-03T17:17:26.875Z,41.65
2019-05-03T17:19:56.775Z,41.55
2019-05-03T17:22:28.613Z,41.95
2019-05-03T17:24:58.444Z,42.44
2019-05-03T17:27:28.753Z,42.28
2019-05-03T17:29:58.482Z,42.74
2019-05-03T17:32:28.154Z,42.83
2019-05-03T17:34:57.999Z,43.18
2019-05-03T17:37:28.009Z,43.05
2019-05-03T17:40:05.496Z,43.76
2019-05-03T17:42:54.716Z,43.85
2019-05-03T17:45:26.696Z,43.53
2019-05-03T17:47:56.575Z,43.95
2019-05-03T17:50:26.162Z,43.93
2019-05-03T17:53:00.869Z,43.96
2019-05-03T17:55:35.280Z,43.95
2019-05-03T17:58:15.113Z,44.08
2019-05-03T18:00:44.895Z,44.41
2019-05-03T18:03:16.100Z,44.59
2019-05-03T18:05:48.110Z,44.82
2019-05-03T18:08:28.335Z,44.91
2019-05-03T18:10:59.722Z,45.00
2019-05-03T18:13:29.395Z,44.88
2019-05-03T18:15:58.935Z,45.14
2019-05-03T18:18:29.077Z,45.93
2019-05-03T18:20:58.958Z,46.22
2019-05-03T18:23:29.520Z,45.90
2019-05-03T18:25:59.863Z,45.49
2019-05-03T18:28:29.835Z,45.61
2019-05-03T18:30:59.727Z,45.42
2019-05-03T18:33:29.775Z,45.87
2019-05-03T18:35:59.685Z,46.51
2019-05-03T18:38:30.978Z,46.66
2019-05-03T18:41:04.542Z,46.80
2019-05-03T18:43:35.444Z,46.86
2019-05-03T18:46:14.210Z,47.17
2019-05-03T18:48:44.579Z,47.45
2019-05-03T18:51:14.816Z,47.58
2019-05-03T18:53:45.123Z,47.29
2019-05-03T18:56:14.935Z,47.96
2019-05-03T18:58:44.959Z,48.13
2019-05-03T19:01:18.609Z,47.59
2019-05-03T19:03:49.896Z,47.78
2019-05-03T19:06:19.544Z,47.76
2019-05-03T19:09:00.989Z,47.81
2019-05-03T19:11:48.091Z,47.46
2019-05-03T19:14:19.366Z,47.80
2019-05-03T19:16:59.115Z,49.26
2019-05-03T19:19:31.070Z,51.02
2019-05-03T19:22:00.981Z,52.61
2019-05-03T19:24:31.378Z,52.10
2019-05-03T19:27:00.938Z,52.14
2019-05-03T19:29:30.515Z,52.37
2019-05-03T19:32:00.078Z,52.71
2019-05-03T19:34:29.635Z,52.74
2019-05-03T19:36:59.283Z,52.67
2019-05-03T19:39:28.828Z,53.05
2019-05-03T19:41:58.604Z,53.32
2019-05-03T19:44:28.162Z,53.07
2019-05-03T19:46:57.859Z,53.59
2019-05-03T19:49:27.440Z,53.72
2019-05-03T19:51:57.065Z,53.90
2019-05-03T19:54:26.943Z,54.77
2019-05-03T19:56:56.542Z,55.07
2019-05-03T19:59:43.592Z,54.78
2019-05-03T20:02:15.050Z,54.35
2019-05-03T20:05:00.625Z,54.05
2019-05-03T20:07:31.058Z,53.76
2019-05-03T20:10:00.737Z,54.24
2019-05-03T20:12:30.493Z,54.18
2019-05-03T20:15:00.173Z,54.58
2019-05-03T20:17:29.714Z,55.17
2019-05-03T20:19:59.506Z,55.52
2019-05-03T20:22:29.161Z,55.66
2019-05-03T20:24:58.677Z,56.12
2019-05-03T20:27:28.405Z,55.85
2019-05-03T20:29:58.078Z,56.06
2019-05-03T20:32:28.245Z,55.88
2019-05-03T20:35:10.551Z,56.23
2019-05-03T20:37:29.178Z,58.09
2019-05-03T20:39:59.117Z,60.85
2019-05-03T20:42:48.973Z,62.09
2019-05-03T20:45:35.422Z,63.24
2019-05-03T20:48:07.082Z,63.53
2019-05-03T20:50:36.728Z,63.59
2019-05-03T20:53:06.547Z,64.45
2019-05-03T20:55:36.162Z,63.99
2019-05-03T20:58:08.339Z,63.75
2019-05-03T21:00:37.217Z,64.15
2019-05-03T21:03:07.655Z,65.53
2019-05-03T21:05:37.653Z,65.56
2019-05-03T21:08:07.481Z,65.49
2019-05-03T21:10:37.181Z,65.54
2019-05-03T21:13:08.758Z,66.46
2019-05-03T21:15:45.328Z,66.86
2019-05-03T21:18:16.695Z,66.12
2019-05-03T21:21:00.794Z,66.25
2019-05-03T21:23:45.099Z,66.23
2019-05-03T21:26:16.619Z,66.69
2019-05-03T21:28:48.733Z,66.18
2019-05-03T21:31:18.296Z,65.37
2019-05-03T21:33:48.246Z,65.12
2019-05-03T21:36:18.176Z,65.07
2019-05-03T21:38:48.089Z,64.38
2019-05-03T21:41:24.585Z,64.29
2019-05-03T21:43:54.473Z,63.79
2019-05-03T21:46:26.188Z,64.05
2019-05-03T21:49:00.277Z,63.90
2019-05-03T21:51:29.931Z,64.08
2019-05-03T21:53:59.444Z,63.78
2019-05-03T21:56:29.297Z,63.84
2019-05-03T21:58:58.872Z,63.46
2019-05-03T22:01:28.505Z,64.24
2019-05-03T22:03:58.034Z,63.98
2019-05-03T22:06:28.115Z,62.72
2019-05-03T22:08:58.381Z,63.41
2019-05-03T22:11:28.477Z,63.44
2019-05-03T22:14:01.662Z,64.30
2019-05-03T22:16:35.979Z,64.28
2019-05-03T22:19:05.698Z,64.96
2019-05-03T22:21:39.589Z,65.33
2019-05-03T22:24:27.021Z,66.18
2019-05-03T22:26:58.219Z,66.18
2019-05-03T22:29:29.041Z,67.07
2019-05-03T22:32:00.587Z,67.41
2019-05-03T22:34:30.175Z,67.72
2019-05-03T22:36:59.685Z,66.44
2019-05-03T22:39:29.289Z,67.19
2019-05-03T22:41:58.787Z,67.47
2019-05-03T22:44:28.290Z,67.59
2019-05-03T22:46:57.960Z,67.59
2019-05-03T22:49:27.614Z,68.25
2019-05-03T22:51:57.240Z,68.08
2019-05-03T22:54:27.850Z,68.34
2019-05-03T22:56:57.576Z,68.47
2019-05-03T22:59:28.211Z,68.62
2019-05-03T23:01:57.797Z,68.56
2019-05-03T23:04:27.894Z,68.25
2019-05-03T23:06:57.443Z,68.75
2019-05-03T23:09:27.145Z,69.07
2019-05-03T23:11:56.655Z,69.18
2019-05-03T23:14:26.264Z,69.63
2019-05-03T23:16:56.483Z,69.86
2019-05-03T23:19:25.982Z,71.03
2019-05-03T23:22:04.839Z,71.28
2019-05-03T23:24:35.245Z,70.93
2019-05-03T23:27:05.313Z,70.64
2019-05-03T23:29:35.090Z,70.89
2019-05-03T23:32:05.753Z,71.71
2019-05-03T23:34:35.358Z,72.38
2019-05-03T23:37:05.636Z,72.39
2019-05-03T23:39:35.521Z,71.90
2019-05-03T23:42:06.083Z,71.89
2019-05-03T23:44:35.708Z,72.17
2019-05-03T23:47:14.580Z,72.49
2019-05-03T23:49:44.644Z,72.15
2019-05-03T23:52:26.546Z,71.75
2019-05-03T23:55:02.920Z,71.64
2019-05-03T23:57:32.512Z,72.09
